sensor_id;sensor_type;location;lat;lon;timestamp;pressure;altitude;pressure_sealevel;temperature;humidity
66681;BME280;53575;51.366;12.350;2023-08-06T00:01:24;99452.81;;;17.29;95.79
66681;BME280;53575;51.366;12.350;2023-08-06T00:03:50;99449.00;;;17.16;96.26
66681;BME280;53575;51.366;12.350;2023-08-06T00:06:16;99450.03;;;17.14;96.57
66681;BME280;53575;51.366;12.350;2023-08-06T00:08:41;99440.38;;;17.13;96.54
66681;BME280;53575;51.366;12.350;2023-08-06T00:11:06;99436.16;;;17.09;96.78
66681;BME280;53575;51.366;12.350;2023-08-06T00:13:32;99436.38;;;17.04;97.21
66681;BME280;53575;51.366;12.350;2023-08-06T00:16:11;99427.75;;;17.00;97.65
66681;BME280;53575;51.366;12.350;2023-08-06T00:18:37;99433.66;;;17.05;97.46
66681;BME280;53575;51.366;12.350;2023-08-06T00:21:03;99424.34;;;17.17;96.36
66681;BME280;53575;51.366;12.350;2023-08-06T00:23:28;99422.19;;;17.25;95.96
66681;BME280;53575;51.366;12.350;2023-08-06T00:25:53;99418.63;;;17.08;96.71
66681;BME280;53575;51.366;12.350;2023-08-06T00:28:19;99420.28;;;17.10;97.50
66681;BME280;53575;51.366;12.350;2023-08-06T00:30:44;99427.34;;;17.10;97.52
66681;BME280;53575;51.366;12.350;2023-08-06T00:33:09;99416.56;;;16.95;97.96
66681;BME280;53575;51.366;12.350;2023-08-06T00:35:35;99418.75;;;17.04;97.76
66681;BME280;53575;51.366;12.350;2023-08-06T00:38:00;99417.50;;;16.94;98.20
66681;BME280;53575;51.366;12.350;2023-08-06T00:40:25;99419.34;;;16.92;98.54
66681;BME280;53575;51.366;12.350;2023-08-06T00:42:53;99410.22;;;16.99;98.27
66681;BME280;53575;51.366;12.350;2023-08-06T00:45:19;99407.63;;;17.17;97.91
66681;BME280;53575;51.366;12.350;2023-08-06T00:47:44;99408.34;;;17.20;97.25
66681;BME280;53575;51.366;12.350;2023-08-06T00:50:11;99403.00;;;17.03;97.47
66681;BME280;53575;51.366;12.350;2023-08-06T00:52:36;99404.34;;;16.93;98.71
66681;BME280;53575;51.366;12.350;2023-08-06T00:55:03;99409.63;;;16.93;99.16
66681;BME280;53575;51.366;12.350;2023-08-06T00:57:29;99403.22;;;16.98;99.13
66681;BME280;53575;51.366;12.350;2023-08-06T00:59:54;99407.56;;;16.99;99.50
66681;BME280;53575;51.366;12.350;2023-08-06T01:02:20;99396.56;;;16.90;100.00
66681;BME280;53575;51.366;12.350;2023-08-06T01:04:45;99396.66;;;16.88;99.59
66681;BME280;53575;51.366;12.350;2023-08-06T01:15:20;99392.72;;;16.78;100.00
66681;BME280;53575;51.366;12.350;2023-08-06T01:17:48;99384.69;;;16.81;100.00
66681;BME280;53575;51.366;12.350;2023-08-06T01:20:13;99382.19;;;16.78;100.00
66681;BME280;53575;51.366;12.350;2023-08-06T01:22:39;99375.38;;;16.72;100.00
66681;BME280;53575;51.366;12.350;2023-08-06T01:25:05;99387.75;;;16.91;100.00
66681;BME280;53575;51.366;12.350;2023-08-06T01:27:38;99386.03;;;16.90;100.00
66681;BME280;53575;51.366;12.350;2023-08-06T01:30:28;99390.22;;;16.94;100.00
66681;BME280;53575;51.366;12.350;2023-08-06T01:32:58;99380.69;;;17.10;100.00
66681;BME280;53575;51.366;12.350;2023-08-06T01:35:25;99380.88;;;17.05;99.79
66681;BME280;53575;51.366;12.350;2023-08-06T01:37:52;99376.31;;;17.09;100.00
66681;BME280;53575;51.366;12.350;2023-08-06T01:40:17;99381.03;;;17.02;100.00
66681;BME280;53575;51.366;12.350;2023-08-06T01:42:43;99381.53;;;16.92;100.00
66681;BME280;53575;51.366;12.350;2023-08-06T01:45:09;99370.53;;;17.01;100.00
66681;BME280;53575;51.366;12.350;2023-08-06T01:47:35;99365.34;;;16.99;100.00
66681;BME280;53575;51.366;12.350;2023-08-06T01:50:01;99366.44;;;16.95;100.00
66681;BME280;53575;51.366;12.350;2023-08-06T01:52:27;99373.69;;;16.90;100.00
66681;BME280;53575;51.366;12.350;2023-08-06T01:54:54;99367.38;;;16.94;100.00
66681;BME280;53575;51.366;12.350;2023-08-06T01:57:19;99357.47;;;16.98;100.00
66681;BME280;53575;51.366;12.350;2023-08-06T01:59:44;99364.00;;;16.91;100.00
66681;BME280;53575;51.366;12.350;2023-08-06T02:02:10;99356.28;;;17.05;100.00
66681;BME280;53575;51.366;12.350;2023-08-06T02:04:35;99362.47;;;17.04;100.00
66681;BME280;53575;51.366;12.350;2023-08-06T02:07:00;99357.28;;;17.02;100.00
66681;BME280;53575;51.366;12.350;2023-08-06T02:09:26;99354.44;;;17.07;100.00
66681;BME280;53575;51.366;12.350;2023-08-06T02:11:51;99347.72;;;17.00;100.00
66681;BME280;53575;51.366;12.350;2023-08-06T02:14:16;99344.88;;;16.86;100.00
66681;BME280;53575;51.366;12.350;2023-08-06T02:16:42;99336.03;;;16.68;100.00
66681;BME280;53575;51.366;12.350;2023-08-06T02:19:07;99338.34;;;16.94;100.00
66681;BME280;53575;51.366;12.350;2023-08-06T02:21:33;99322.22;;;16.81;100.00
66681;BME280;53575;51.366;12.350;2023-08-06T02:23:58;99323.16;;;16.80;100.00
66681;BME280;53575;51.366;12.350;2023-08-06T02:26:24;99316.16;;;16.79;100.00
66681;BME280;53575;51.366;12.350;2023-08-06T02:28:49;99303.66;;;16.64;100.00
66681;BME280;53575;51.366;12.350;2023-08-06T02:31:14;99301.09;;;16.63;100.00
66681;BME280;53575;51.366;12.350;2023-08-06T02:33:40;99298.09;;;16.51;100.00
66681;BME280;53575;51.366;12.350;2023-08-06T02:36:05;99297.31;;;16.49;100.00
66681;BME280;53575;51.366;12.350;2023-08-06T02:38:32;99290.16;;;16.70;100.00
66681;BME280;53575;51.366;12.350;2023-08-06T02:40:57;99297.69;;;16.79;100.00
66681;BME280;53575;51.366;12.350;2023-08-06T02:43:23;99294.97;;;16.81;100.00
66681;BME280;53575;51.366;12.350;2023-08-06T02:45:48;99294.50;;;16.90;100.00
66681;BME280;53575;51.366;12.350;2023-08-06T02:48:13;99292.56;;;16.76;100.00
66681;BME280;53575;51.366;12.350;2023-08-06T02:50:42;99287.53;;;16.89;100.00
66681;BME280;53575;51.366;12.350;2023-08-06T02:53:08;99289.25;;;16.90;100.00
66681;BME280;53575;51.366;12.350;2023-08-06T02:55:34;99281.78;;;16.81;100.00
66681;BME280;53575;51.366;12.350;2023-08-06T02:58:00;99276.97;;;16.89;100.00
66681;BME280;53575;51.366;12.350;2023-08-06T03:00:26;99277.81;;;16.71;100.00
66681;BME280;53575;51.366;12.350;2023-08-06T03:02:51;99274.28;;;16.72;100.00
66681;BME280;53575;51.366;12.350;2023-08-06T03:05:17;99279.84;;;16.66;100.00
66681;BME280;53575;51.366;12.350;2023-08-06T03:07:43;99284.03;;;16.70;100.00
66681;BME280;53575;51.366;12.350;2023-08-06T03:10:08;99285.19;;;16.64;100.00
66681;BME280;53575;51.366;12.350;2023-08-06T03:12:34;99271.84;;;16.67;100.00
66681;BME280;53575;51.366;12.350;2023-08-06T03:15:00;99270.94;;;16.68;100.00
66681;BME280;53575;51.366;12.350;2023-08-06T03:17:25;99266.66;;;16.66;100.00
66681;BME280;53575;51.366;12.350;2023-08-06T03:19:50;99268.34;;;16.67;100.00
66681;BME280;53575;51.366;12.350;2023-08-06T03:22:16;99267.16;;;16.74;100.00
66681;BME280;53575;51.366;12.350;2023-08-06T03:24:41;99268.19;;;16.52;100.00
66681;BME280;53575;51.366;12.350;2023-08-06T03:27:06;99268.66;;;16.61;100.00
66681;BME280;53575;51.366;12.350;2023-08-06T03:29:32;99265.94;;;16.62;100.00
66681;BME280;53575;51.366;12.350;2023-08-06T03:31:57;99256.72;;;16.71;100.00
66681;BME280;53575;51.366;12.350;2023-08-06T03:34:22;99259.19;;;16.56;100.00
66681;BME280;53575;51.366;12.350;2023-08-06T03:36:48;99250.47;;;16.54;100.00
66681;BME280;53575;51.366;12.350;2023-08-06T03:39:13;99251.56;;;16.50;100.00
66681;BME280;53575;51.366;12.350;2023-08-06T03:41:39;99247.28;;;16.48;100.00
66681;BME280;53575;51.366;12.350;2023-08-06T03:44:05;99248.69;;;16.55;100.00
66681;BME280;53575;51.366;12.350;2023-08-06T03:46:30;99247.78;;;16.56;100.00
66681;BME280;53575;51.366;12.350;2023-08-06T03:49:02;99244.63;;;16.48;100.00
66681;BME280;53575;51.366;12.350;2023-08-06T03:51:27;99241.81;;;16.52;100.00
66681;BME280;53575;51.366;12.350;2023-08-06T03:53:53;99243.91;;;16.44;100.00
66681;BME280;53575;51.366;12.350;2023-08-06T03:56:18;99242.22;;;16.43;100.00
66681;BME280;53575;51.366;12.350;2023-08-06T03:58:43;99245.56;;;16.47;100.00
66681;BME280;53575;51.366;12.350;2023-08-06T04:01:09;99234.75;;;16.53;100.00
66681;BME280;53575;51.366;12.350;2023-08-06T04:03:34;99247.00;;;16.54;100.00
66681;BME280;53575;51.366;12.350;2023-08-06T04:06:02;99250.78;;;16.48;100.00
66681;BME280;53575;51.366;12.350;2023-08-06T04:08:28;99247.34;;;16.46;100.00
66681;BME280;53575;51.366;12.350;2023-08-06T04:10:53;99250.22;;;16.42;100.00
66681;BME280;53575;51.366;12.350;2023-08-06T04:13:19;99250.34;;;16.57;100.00
66681;BME280;53575;51.366;12.350;2023-08-06T04:15:45;99242.06;;;16.65;100.00
66681;BME280;53575;51.366;12.350;2023-08-06T04:18:11;99237.91;;;16.60;100.00
66681;BME280;53575;51.366;12.350;2023-08-06T04:20:46;99239.16;;;16.52;100.00
66681;BME280;53575;51.366;12.350;2023-08-06T04:23:12;99237.81;;;16.44;100.00
66681;BME280;53575;51.366;12.350;2023-08-06T04:25:38;99239.59;;;16.43;100.00
66681;BME280;53575;51.366;12.350;2023-08-06T04:28:04;99237.09;;;16.40;100.00
66681;BME280;53575;51.366;12.350;2023-08-06T04:30:29;99230.81;;;16.43;100.00
66681;BME280;53575;51.366;12.350;2023-08-06T04:32:56;99239.72;;;16.40;100.00
66681;BME280;53575;51.366;12.350;2023-08-06T04:35:22;99228.31;;;16.40;100.00
66681;BME280;53575;51.366;12.350;2023-08-06T04:37:48;99233.53;;;16.41;100.00
66681;BME280;53575;51.366;12.350;2023-08-06T04:40:13;99232.47;;;16.45;100.00
66681;BME280;53575;51.366;12.350;2023-08-06T04:42:39;99234.66;;;16.54;100.00
66681;BME280;53575;51.366;12.350;2023-08-06T04:45:05;99232.38;;;16.47;100.00
66681;BME280;53575;51.366;12.350;2023-08-06T04:47:30;99239.53;;;16.45;100.00
66681;BME280;53575;51.366;12.350;2023-08-06T04:49:56;99238.66;;;16.44;100.00
66681;BME280;53575;51.366;12.350;2023-08-06T04:52:21;99235.13;;;16.26;100.00
66681;BME280;53575;51.366;12.350;2023-08-06T04:54:46;99233.34;;;16.27;100.00
66681;BME280;53575;51.366;12.350;2023-08-06T04:57:12;99234.09;;;16.29;100.00
66681;BME280;53575;51.366;12.350;2023-08-06T04:59:37;99233.75;;;16.18;100.00
66681;BME280;53575;51.366;12.350;2023-08-06T05:02:03;99226.41;;;16.05;100.00
66681;BME280;53575;51.366;12.350;2023-08-06T05:04:28;99233.09;;;16.13;100.00
66681;BME280;53575;51.366;12.350;2023-08-06T05:06:53;99230.69;;;16.08;100.00
66681;BME280;53575;51.366;12.350;2023-08-06T05:09:19;99233.25;;;16.09;100.00
66681;BME280;53575;51.366;12.350;2023-08-06T05:11:46;99221.63;;;16.14;100.00
66681;BME280;53575;51.366;12.350;2023-08-06T05:14:12;99226.78;;;16.17;100.00
66681;BME280;53575;51.366;12.350;2023-08-06T05:16:37;99222.06;;;16.23;100.00
66681;BME280;53575;51.366;12.350;2023-08-06T05:19:02;99223.19;;;16.18;100.00
66681;BME280;53575;51.366;12.350;2023-08-06T05:21:28;99222.84;;;16.25;100.00
66681;BME280;53575;51.366;12.350;2023-08-06T05:23:54;99219.16;;;16.29;100.00
66681;BME280;53575;51.366;12.350;2023-08-06T05:26:19;99219.72;;;16.36;100.00
66681;BME280;53575;51.366;12.350;2023-08-06T05:28:45;99217.50;;;16.27;100.00
66681;BME280;53575;51.366;12.350;2023-08-06T05:31:11;99222.00;;;16.25;100.00
66681;BME280;53575;51.366;12.350;2023-08-06T05:33:36;99214.78;;;16.28;100.00
66681;BME280;53575;51.366;12.350;2023-08-06T05:36:02;99226.53;;;16.40;100.00
66681;BME280;53575;51.366;12.350;2023-08-06T05:38:27;99219.47;;;16.41;100.00
66681;BME280;53575;51.366;12.350;2023-08-06T05:40:53;99224.56;;;16.26;100.00
66681;BME280;53575;51.366;12.350;2023-08-06T05:43:18;99228.47;;;16.18;100.00
66681;BME280;53575;51.366;12.350;2023-08-06T05:45:44;99227.13;;;16.28;100.00
66681;BME280;53575;51.366;12.350;2023-08-06T05:48:11;99220.91;;;16.29;100.00
66681;BME280;53575;51.366;12.350;2023-08-06T05:50:36;99221.13;;;16.24;100.00
66681;BME280;53575;51.366;12.350;2023-08-06T05:53:01;99221.22;;;16.23;100.00
66681;BME280;53575;51.366;12.350;2023-08-06T05:55:27;99218.28;;;16.29;100.00
66681;BME280;53575;51.366;12.350;2023-08-06T05:57:52;99215.72;;;16.27;100.00
66681;BME280;53575;51.366;12.350;2023-08-06T06:00:18;99209.47;;;16.30;100.00
66681;BME280;53575;51.366;12.350;2023-08-06T06:02:43;99213.59;;;16.36;100.00
66681;BME280;53575;51.366;12.350;2023-08-06T06:05:09;99216.69;;;16.44;100.00
66681;BME280;53575;51.366;12.350;2023-08-06T06:07:34;99216.66;;;16.45;100.00
66681;BME280;53575;51.366;12.350;2023-08-06T06:10:00;99225.91;;;16.35;100.00
66681;BME280;53575;51.366;12.350;2023-08-06T06:12:25;99214.22;;;16.41;100.00
66681;BME280;53575;51.366;12.350;2023-08-06T06:14:51;99221.06;;;16.45;100.00
66681;BME280;53575;51.366;12.350;2023-08-06T06:17:16;99204.09;;;16.50;100.00
66681;BME280;53575;51.366;12.350;2023-08-06T06:19:42;99207.09;;;16.43;100.00
66681;BME280;53575;51.366;12.350;2023-08-06T06:22:07;99208.16;;;16.57;100.00
66681;BME280;53575;51.366;12.350;2023-08-06T06:24:33;99204.44;;;16.62;100.00
66681;BME280;53575;51.366;12.350;2023-08-06T06:26:58;99198.78;;;16.69;100.00
66681;BME280;53575;51.366;12.350;2023-08-06T06:29:24;99197.59;;;16.76;99.90
66681;BME280;53575;51.366;12.350;2023-08-06T06:31:49;99201.53;;;16.85;99.39
66681;BME280;53575;51.366;12.350;2023-08-06T06:34:14;99193.00;;;16.80;99.74
66681;BME280;53575;51.366;12.350;2023-08-06T06:36:40;99191.38;;;16.77;99.59
66681;BME280;53575;51.366;12.350;2023-08-06T06:39:05;99189.53;;;16.79;99.75
66681;BME280;53575;51.366;12.350;2023-08-06T06:41:31;99190.22;;;16.83;99.34
66681;BME280;53575;51.366;12.350;2023-08-06T06:43:58;99185.41;;;16.91;99.84
66681;BME280;53575;51.366;12.350;2023-08-06T06:46:23;99184.31;;;16.95;97.98
66681;BME280;53575;51.366;12.350;2023-08-06T06:48:49;99185.88;;;16.99;97.57
66681;BME280;53575;51.366;12.350;2023-08-06T06:51:14;99192.84;;;17.00;97.28
66681;BME280;53575;51.366;12.350;2023-08-06T06:53:39;99188.81;;;16.93;96.69
66681;BME280;53575;51.366;12.350;2023-08-06T06:56:05;99189.53;;;16.97;97.01
66681;BME280;53575;51.366;12.350;2023-08-06T06:58:31;99192.94;;;16.99;97.12
66681;BME280;53575;51.366;12.350;2023-08-06T07:00:57;99187.22;;;16.91;97.01
66681;BME280;53575;51.366;12.350;2023-08-06T07:03:22;99185.41;;;16.91;96.39
66681;BME280;53575;51.366;12.350;2023-08-06T07:05:50;99191.91;;;17.01;96.57
66681;BME280;53575;51.366;12.350;2023-08-06T07:08:15;99187.81;;;16.96;95.85
66681;BME280;53575;51.366;12.350;2023-08-06T07:10:41;99191.06;;;17.01;95.93
66681;BME280;53575;51.366;12.350;2023-08-06T07:13:08;99180.59;;;16.99;95.88
66681;BME280;53575;51.366;12.350;2023-08-06T07:15:33;99188.44;;;16.84;96.99
66681;BME280;53575;51.366;12.350;2023-08-06T07:17:59;99193.84;;;16.98;97.15
66681;BME280;53575;51.366;12.350;2023-08-06T07:20:24;99175.09;;;17.21;95.61
66681;BME280;53575;51.366;12.350;2023-08-06T07:22:49;99181.75;;;17.28;95.60
66681;BME280;53575;51.366;12.350;2023-08-06T07:25:16;99186.47;;;17.39;95.07
66681;BME280;53575;51.366;12.350;2023-08-06T07:27:41;99189.94;;;17.57;93.94
66681;BME280;53575;51.366;12.350;2023-08-06T07:30:07;99182.63;;;17.62;92.65
66681;BME280;53575;51.366;12.350;2023-08-06T07:32:33;99184.75;;;17.56;92.92
66681;BME280;53575;51.366;12.350;2023-08-06T07:34:59;99182.88;;;17.58;93.12
66681;BME280;53575;51.366;12.350;2023-08-06T07:37:27;99191.47;;;17.61;92.23
66681;BME280;53575;51.366;12.350;2023-08-06T07:39:56;99187.34;;;17.73;92.81
66681;BME280;53575;51.366;12.350;2023-08-06T07:42:22;99184.09;;;17.68;92.10
66681;BME280;53575;51.366;12.350;2023-08-06T07:44:55;99187.28;;;17.74;91.69
66681;BME280;53575;51.366;12.350;2023-08-06T07:47:21;99191.28;;;17.82;90.95
66681;BME280;53575;51.366;12.350;2023-08-06T07:49:46;99194.81;;;17.82;90.66
66681;BME280;53575;51.366;12.350;2023-08-06T07:52:11;99194.63;;;17.85;91.16
66681;BME280;53575;51.366;12.350;2023-08-06T07:54:37;99198.81;;;17.89;90.16
66681;BME280;53575;51.366;12.350;2023-08-06T07:57:03;99194.63;;;17.85;89.91
66681;BME280;53575;51.366;12.350;2023-08-06T07:59:28;99200.28;;;17.95;91.21
66681;BME280;53575;51.366;12.350;2023-08-06T08:01:53;99196.81;;;18.10;89.83
66681;BME280;53575;51.366;12.350;2023-08-06T08:04:19;99196.91;;;18.09;88.66
66681;BME280;53575;51.366;12.350;2023-08-06T08:06:44;99192.31;;;18.28;87.89
66681;BME280;53575;51.366;12.350;2023-08-06T08:09:10;99185.06;;;18.32;87.41
66681;BME280;53575;51.366;12.350;2023-08-06T08:11:35;99190.81;;;18.38;86.61
66681;BME280;53575;51.366;12.350;2023-08-06T08:14:00;99183.31;;;18.46;86.40
66681;BME280;53575;51.366;12.350;2023-08-06T08:16:26;99175.03;;;18.52;86.18
66681;BME280;53575;51.366;12.350;2023-08-06T08:18:51;99170.69;;;18.20;88.61
66681;BME280;53575;51.366;12.350;2023-08-06T08:21:17;99173.84;;;18.42;86.65
66681;BME280;53575;51.366;12.350;2023-08-06T08:23:42;99170.16;;;18.61;85.44
66681;BME280;53575;51.366;12.350;2023-08-06T08:26:09;99176.41;;;18.60;84.86
66681;BME280;53575;51.366;12.350;2023-08-06T08:28:34;99171.84;;;18.62;85.29
66681;BME280;53575;51.366;12.350;2023-08-06T08:30:59;99168.28;;;18.79;85.98
66681;BME280;53575;51.366;12.350;2023-08-06T08:33:25;99163.72;;;18.81;83.97
66681;BME280;53575;51.366;12.350;2023-08-06T08:35:50;99173.31;;;18.83;82.63
66681;BME280;53575;51.366;12.350;2023-08-06T08:38:16;99171.44;;;18.85;83.06
66681;BME280;53575;51.366;12.350;2023-08-06T08:40:46;99165.19;;;18.86;84.17
66681;BME280;53575;51.366;12.350;2023-08-06T08:43:15;99156.75;;;19.10;82.47
66681;BME280;53575;51.366;12.350;2023-08-06T08:45:42;99151.22;;;18.98;82.66
66681;BME280;53575;51.366;12.350;2023-08-06T08:48:11;99146.91;;;19.26;81.13
66681;BME280;53575;51.366;12.350;2023-08-06T08:50:39;99145.25;;;19.39;79.67
66681;BME280;53575;51.366;12.350;2023-08-06T08:53:05;99147.91;;;19.54;78.69
66681;BME280;53575;51.366;12.350;2023-08-06T08:55:31;99146.28;;;19.51;78.86
66681;BME280;53575;51.366;12.350;2023-08-06T08:57:57;99139.19;;;19.52;80.25
66681;BME280;53575;51.366;12.350;2023-08-06T09:00:22;99133.50;;;19.43;79.90
66681;BME280;53575;51.366;12.350;2023-08-06T09:02:48;99141.69;;;19.69;78.10
66681;BME280;53575;51.366;12.350;2023-08-06T09:05:15;99136.84;;;19.76;77.47
66681;BME280;53575;51.366;12.350;2023-08-06T09:07:48;99129.84;;;19.46;77.45
66681;BME280;53575;51.366;12.350;2023-08-06T09:10:16;99135.50;;;19.83;76.83
66681;BME280;53575;51.366;12.350;2023-08-06T09:12:43;99147.13;;;19.94;77.17
66681;BME280;53575;51.366;12.350;2023-08-06T09:15:08;99137.09;;;20.00;75.64
66681;BME280;53575;51.366;12.350;2023-08-06T09:17:34;99132.81;;;20.11;76.21
66681;BME280;53575;51.366;12.350;2023-08-06T09:20:08;99131.06;;;20.25;75.21
66681;BME280;53575;51.366;12.350;2023-08-06T09:22:34;99124.78;;;20.26;75.48
66681;BME280;53575;51.366;12.350;2023-08-06T09:25:00;99129.97;;;20.41;75.47
66681;BME280;53575;51.366;12.350;2023-08-06T09:27:26;99132.97;;;20.23;74.23
66681;BME280;53575;51.366;12.350;2023-08-06T09:29:51;99128.94;;;20.03;73.13
66681;BME280;53575;51.366;12.350;2023-08-06T09:32:17;99121.47;;;19.95;71.20
66681;BME280;53575;51.366;12.350;2023-08-06T09:34:43;99120.13;;;20.02;71.78
66681;BME280;53575;51.366;12.350;2023-08-06T09:37:09;99123.28;;;19.94;70.79
66681;BME280;53575;51.366;12.350;2023-08-06T09:39:38;99126.19;;;20.04;72.22
66681;BME280;53575;51.366;12.350;2023-08-06T09:42:04;99127.50;;;20.11;70.53
66681;BME280;53575;51.366;12.350;2023-08-06T09:44:32;99134.16;;;20.04;70.30
66681;BME280;53575;51.366;12.350;2023-08-06T09:47:00;99123.09;;;20.25;69.81
66681;BME280;53575;51.366;12.350;2023-08-06T09:49:28;99117.00;;;20.37;68.49
66681;BME280;53575;51.366;12.350;2023-08-06T09:51:54;99114.91;;;20.42;69.69
66681;BME280;53575;51.366;12.350;2023-08-06T09:54:24;99118.72;;;20.65;70.18
66681;BME280;53575;51.366;12.350;2023-08-06T09:56:51;99108.06;;;20.52;71.44
66681;BME280;53575;51.366;12.350;2023-08-06T09:59:17;99108.00;;;20.66;72.04
66681;BME280;53575;51.366;12.350;2023-08-06T10:01:43;99116.22;;;20.76;70.37
66681;BME280;53575;51.366;12.350;2023-08-06T10:04:09;99115.00;;;20.67;70.37
66681;BME280;53575;51.366;12.350;2023-08-06T10:06:35;99113.47;;;20.51;70.56
66681;BME280;53575;51.366;12.350;2023-08-06T10:09:02;99105.34;;;20.39;69.77
66681;BME280;53575;51.366;12.350;2023-08-06T10:11:28;99096.22;;;20.43;70.55
66681;BME280;53575;51.366;12.350;2023-08-06T10:16:29;99091.53;;;20.61;68.48
66681;BME280;53575;51.366;12.350;2023-08-06T10:18:55;99084.00;;;20.68;68.76
66681;BME280;53575;51.366;12.350;2023-08-06T10:21:23;99076.59;;;20.86;69.43
66681;BME280;53575;51.366;12.350;2023-08-06T10:23:54;99080.53;;;21.06;69.03
66681;BME280;53575;51.366;12.350;2023-08-06T10:26:19;99079.69;;;20.92;67.49
66681;BME280;53575;51.366;12.350;2023-08-06T10:28:44;99073.53;;;21.05;68.28
66681;BME280;53575;51.366;12.350;2023-08-06T10:31:10;99073.63;;;21.03;68.15
66681;BME280;53575;51.366;12.350;2023-08-06T10:33:45;99066.59;;;21.28;68.14
66681;BME280;53575;51.366;12.350;2023-08-06T10:36:12;99064.94;;;21.39;66.64
66681;BME280;53575;51.366;12.350;2023-08-06T10:38:48;99069.59;;;21.49;66.83
66681;BME280;53575;51.366;12.350;2023-08-06T10:41:43;99061.63;;;21.36;65.74
66681;BME280;53575;51.366;12.350;2023-08-06T10:44:10;99068.84;;;21.21;64.81
66681;BME280;53575;51.366;12.350;2023-08-06T10:46:36;99058.31;;;20.94;66.23
66681;BME280;53575;51.366;12.350;2023-08-06T10:49:03;99042.50;;;21.18;65.65
66681;BME280;53575;51.366;12.350;2023-08-06T10:51:29;99042.81;;;20.88;65.78
66681;BME280;53575;51.366;12.350;2023-08-06T10:53:55;99038.56;;;20.98;65.92
66681;BME280;53575;51.366;12.350;2023-08-06T10:56:23;99036.94;;;21.21;65.10
66681;BME280;53575;51.366;12.350;2023-08-06T10:58:51;99031.84;;;21.44;65.02
66681;BME280;53575;51.366;12.350;2023-08-06T11:01:17;99022.97;;;21.69;64.53
66681;BME280;53575;51.366;12.350;2023-08-06T11:03:44;99021.81;;;21.97;63.88
66681;BME280;53575;51.366;12.350;2023-08-06T11:06:10;99022.41;;;21.52;64.33
66681;BME280;53575;51.366;12.350;2023-08-06T11:08:38;99016.41;;;21.61;63.96
66681;BME280;53575;51.366;12.350;2023-08-06T11:11:11;99023.59;;;21.72;63.46
66681;BME280;53575;51.366;12.350;2023-08-06T11:13:41;99013.81;;;21.73;62.60
66681;BME280;53575;51.366;12.350;2023-08-06T11:16:06;99018.03;;;21.51;64.70
66681;BME280;53575;51.366;12.350;2023-08-06T11:18:32;99015.78;;;21.58;64.72
66681;BME280;53575;51.366;12.350;2023-08-06T11:20:59;99008.72;;;21.70;60.33
66681;BME280;53575;51.366;12.350;2023-08-06T11:23:29;99013.06;;;21.71;61.78
66681;BME280;53575;51.366;12.350;2023-08-06T11:25:56;99008.84;;;21.92;60.76
66681;BME280;53575;51.366;12.350;2023-08-06T11:28:21;98995.31;;;21.95;61.75
66681;BME280;53575;51.366;12.350;2023-08-06T11:30:48;98992.84;;;22.29;60.12
66681;BME280;53575;51.366;12.350;2023-08-06T11:33:14;98996.78;;;21.99;57.34
66681;BME280;53575;51.366;12.350;2023-08-06T11:35:40;98991.06;;;21.93;59.29
66681;BME280;53575;51.366;12.350;2023-08-06T11:38:06;98997.59;;;21.88;60.90
66681;BME280;53575;51.366;12.350;2023-08-06T11:40:32;98990.16;;;21.81;61.45
66681;BME280;53575;51.366;12.350;2023-08-06T11:42:58;98990.41;;;22.02;61.19
66681;BME280;53575;51.366;12.350;2023-08-06T11:45:24;98976.28;;;22.36;60.84
66681;BME280;53575;51.366;12.350;2023-08-06T11:47:51;98979.28;;;22.32;60.86
66681;BME280;53575;51.366;12.350;2023-08-06T11:50:24;98975.00;;;22.53;61.63
66681;BME280;53575;51.366;12.350;2023-08-06T11:52:59;98980.31;;;22.53;60.32
66681;BME280;53575;51.366;12.350;2023-08-06T11:55:26;98974.34;;;22.38;60.32
66681;BME280;53575;51.366;12.350;2023-08-06T11:57:53;98974.63;;;22.58;60.91
66681;BME280;53575;51.366;12.350;2023-08-06T12:00:18;98971.19;;;22.33;61.06
66681;BME280;53575;51.366;12.350;2023-08-06T12:02:48;98966.53;;;22.59;58.16
66681;BME280;53575;51.366;12.350;2023-08-06T12:05:21;98974.88;;;22.44;57.77
66681;BME280;53575;51.366;12.350;2023-08-06T12:07:55;98964.94;;;22.57;57.82
66681;BME280;53575;51.366;12.350;2023-08-06T12:10:22;98965.97;;;22.78;57.89
66681;BME280;53575;51.366;12.350;2023-08-06T12:12:48;98962.19;;;22.70;57.76
66681;BME280;53575;51.366;12.350;2023-08-06T12:15:15;98966.19;;;22.64;57.91
66681;BME280;53575;51.366;12.350;2023-08-06T12:17:41;98964.84;;;22.81;57.86
66681;BME280;53575;51.366;12.350;2023-08-06T12:20:08;98961.81;;;22.85;58.26
66681;BME280;53575;51.366;12.350;2023-08-06T12:22:34;98960.00;;;23.42;57.11
66681;BME280;53575;51.366;12.350;2023-08-06T12:25:01;98958.16;;;23.76;54.96
66681;BME280;53575;51.366;12.350;2023-08-06T12:27:28;98961.56;;;23.56;52.76
66681;BME280;53575;51.366;12.350;2023-08-06T12:29:53;98955.97;;;23.81;51.50
66681;BME280;53575;51.366;12.350;2023-08-06T12:32:19;98951.94;;;24.19;51.37
66681;BME280;53575;51.366;12.350;2023-08-06T12:34:44;98958.28;;;24.07;49.47
66681;BME280;53575;51.366;12.350;2023-08-06T12:37:10;98955.25;;;23.68;48.71
66681;BME280;53575;51.366;12.350;2023-08-06T12:39:36;98949.19;;;23.77;48.18
66681;BME280;53575;51.366;12.350;2023-08-06T12:42:03;98950.66;;;23.70;49.78
66681;BME280;53575;51.366;12.350;2023-08-06T12:44:29;98950.72;;;23.37;51.54
66681;BME280;53575;51.366;12.350;2023-08-06T12:46:54;98948.91;;;23.26;51.54
66681;BME280;53575;51.366;12.350;2023-08-06T12:49:20;98949.13;;;22.89;52.66
66681;BME280;53575;51.366;12.350;2023-08-06T12:51:49;98948.06;;;23.03;53.91